Jandaia, Brazil
Current Conditions -  °F | °C
As of 7:00 PM on Monday 22 Dec 2014 (Local Time) from SBGO Reporting Station
Light Rain Light Rain  
Wind Chill: 75°   Ceiling: Unl
Heat Index: 75°   Visibility: 6mi
Dew Point: 66°   Wind: 3mph
Humidity: 73%   Direction: 10°N
Pressure: NA   Gusts: NA
Location:  17.05°S, 50.15°W
Report Text: SBGO 222100Z 01003KT 9999 4900S -RA SCT035 FEW040TCU 24/19 Q1014
Loading
Personal Weather Stations






























Interactive Weather Map New forecast layout! Learn more

10-Day Weather Forecast

Advertisements
Track Severe Weather on mobile